createdAt,value
2023-03-06T00:02:42.264Z,99515.78
2023-03-06T00:06:44.000Z,99523.66
2023-03-06T00:10:46.043Z,99530.53
2023-03-06T00:14:48.031Z,99537.53
2023-03-06T00:18:49.953Z,99538.44
2023-03-06T00:22:52.071Z,99536.09
2023-03-06T00:26:54.107Z,99534.25
2023-03-06T00:30:56.185Z,99530.13
2023-03-06T00:34:58.153Z,99531.13
2023-03-06T00:39:00.282Z,99523.53
2023-03-06T00:43:02.165Z,99527.00
2023-03-06T00:47:04.886Z,99526.13
2023-03-06T00:51:07.202Z,99526.19
2023-03-06T00:55:11.160Z,99528.78
2023-03-06T00:59:12.788Z,99534.88
2023-03-06T01:03:14.828Z,99534.84
2023-03-06T01:07:17.028Z,99533.22
2023-03-06T01:11:18.977Z,99529.88
2023-03-06T01:15:21.692Z,99536.75
2023-03-06T01:19:23.881Z,99526.59
2023-03-06T01:23:25.900Z,99523.22
2023-03-06T01:27:30.143Z,99524.09
2023-03-06T01:31:32.312Z,99525.84
2023-03-06T01:35:34.517Z,99531.78
2023-03-06T01:39:36.559Z,99522.47
2023-03-06T01:43:41.621Z,99532.72
2023-03-06T01:47:44.809Z,99531.91
2023-03-06T01:51:51.958Z,99528.56
2023-03-06T01:55:55.200Z,99532.00
2023-03-06T02:00:07.090Z,99533.75
2023-03-06T02:04:16.361Z,99528.66
2023-03-06T02:08:21.527Z,99530.38
2023-03-06T02:12:23.939Z,99538.09
2023-03-06T02:16:29.466Z,99538.94
2023-03-06T02:20:46.075Z,99531.28
2023-03-06T02:25:04.337Z,99538.09
2023-03-06T02:29:09.019Z,99537.28
2023-03-06T02:33:15.707Z,99533.03
2023-03-06T02:37:18.190Z,99540.72
2023-03-06T02:41:20.645Z,99539.88
2023-03-06T02:45:35.591Z,99541.59
2023-03-06T02:49:37.623Z,99540.75
2023-03-06T02:53:40.658Z,99533.94
2023-03-06T02:57:42.797Z,99542.47
2023-03-06T03:01:45.026Z,99529.72
2023-03-06T03:05:47.077Z,99535.69
2023-03-06T03:09:56.703Z,99545.06
2023-03-06T03:13:59.051Z,99547.63
2023-03-06T03:18:03.283Z,99547.63
2023-03-06T03:22:05.863Z,99531.44
2023-03-06T03:26:14.340Z,99545.06
2023-03-06T03:30:19.967Z,99547.63
2023-03-06T03:34:22.478Z,99539.13
2023-03-06T03:38:24.555Z,99541.69
2023-03-06T03:42:26.631Z,99543.34
2023-03-06T03:46:29.672Z,99544.22
2023-03-06T03:50:33.286Z,99536.56
2023-03-06T03:54:36.126Z,99540.81
2023-03-06T03:58:38.230Z,99528.03
2023-03-06T04:02:40.306Z,99538.25
2023-03-06T04:06:50.967Z,99527.22
2023-03-06T04:10:55.183Z,99523.81
2023-03-06T04:14:59.173Z,99522.94
2023-03-06T04:19:01.292Z,99531.47
2023-03-06T04:23:03.832Z,99527.22
2023-03-06T04:27:07.193Z,99516.13
2023-03-06T04:31:12.199Z,99511.88
2023-03-06T04:35:14.235Z,99502.50
2023-03-06T04:39:26.842Z,99495.69
2023-03-06T04:43:29.665Z,99497.41
2023-03-06T04:47:31.668Z,99511.06
2023-03-06T04:51:36.806Z,99508.50
2023-03-06T04:55:38.770Z,99511.06
2023-03-06T04:59:40.772Z,99505.97
2023-03-06T05:03:42.735Z,99506.78
2023-03-06T05:07:44.979Z,99497.44
2023-03-06T05:11:47.022Z,99501.69
2023-03-06T05:15:48.958Z,99511.91
2023-03-06T05:19:50.990Z,99517.03
2023-03-06T05:23:53.075Z,99514.47
2023-03-06T05:27:55.052Z,99508.53
2023-03-06T05:31:57.414Z,99505.09
2023-03-06T05:35:59.879Z,99503.41
2023-03-06T05:40:06.059Z,99502.53
2023-03-06T05:44:08.860Z,99505.91
2023-03-06T05:48:13.321Z,99509.28
2023-03-06T05:52:17.390Z,99504.16
2023-03-06T05:56:19.418Z,99493.00
2023-03-06T06:00:22.439Z,99487.81
2023-03-06T06:04:26.161Z,99479.19
2023-03-06T06:08:28.064Z,99481.63
2023-03-06T06:12:30.284Z,99482.41
2023-03-06T06:16:32.251Z,99485.72
2023-03-06T06:20:35.493Z,99494.13
2023-03-06T06:24:37.542Z,99488.81
2023-03-06T06:28:39.645Z,99491.28
2023-03-06T06:32:41.691Z,99481.78
2023-03-06T06:36:44.158Z,99483.22
2023-03-06T06:41:04.281Z,99471.00
2023-03-06T06:45:10.056Z,99475.19
2023-03-06T06:49:13.097Z,99474.88
2023-03-06T06:53:15.017Z,99480.56
2023-03-06T06:57:17.068Z,99475.31
2023-03-06T07:01:19.408Z,99469.75
2023-03-06T07:05:22.207Z,99478.81
2023-03-06T07:09:24.615Z,99477.00
2023-03-06T07:13:26.628Z,99472.28
2023-03-06T07:17:28.660Z,99473.81
2023-03-06T07:21:30.768Z,99473.25
2023-03-06T07:25:32.761Z,99472.94
2023-03-06T07:29:34.794Z,99472.50
2023-03-06T07:33:37.354Z,99476.84
2023-03-06T07:37:39.323Z,99486.81
2023-03-06T07:41:41.286Z,99504.75
2023-03-06T07:45:43.397Z,99515.16
2023-03-06T07:49:45.376Z,99516.53
2023-03-06T07:53:48.792Z,99523.19
2023-03-06T07:57:51.645Z,99522.84
2023-03-06T08:01:55.350Z,99533.63
2023-03-06T08:06:11.085Z,99540.03
2023-03-06T08:10:15.346Z,99541.88
2023-03-06T08:14:17.515Z,99552.00
2023-03-06T08:18:19.483Z,99564.06
2023-03-06T08:22:21.497Z,99556.59
2023-03-06T08:26:27.113Z,99567.53
2023-03-06T08:30:30.369Z,99567.75
2023-03-06T08:34:32.382Z,99560.28
2023-03-06T08:38:34.337Z,99562.13
2023-03-06T08:42:36.424Z,99560.50
2023-03-06T08:46:38.859Z,99571.31
2023-03-06T08:50:41.027Z,99564.28
2023-03-06T08:54:44.188Z,99559.59
2023-03-06T08:58:46.599Z,99564.81
2023-03-06T09:02:48.564Z,99566.25
2023-03-06T09:06:50.804Z,99551.69
2023-03-06T09:10:52.810Z,99549.66
2023-03-06T09:14:54.814Z,99546.53
2023-03-06T09:18:57.874Z,99544.56
2023-03-06T09:22:59.880Z,99547.03
2023-03-06T09:27:02.083Z,99547.16
2023-03-06T09:31:17.731Z,99550.25
2023-03-06T09:35:19.948Z,99546.09
2023-03-06T09:39:22.362Z,99544.84
2023-03-06T09:43:32.618Z,99543.06
2023-03-06T09:48:03.513Z,99532.41
2023-03-06T09:52:30.013Z,99535.97
2023-03-06T09:56:34.661Z,99531.22
2023-03-06T10:00:57.616Z,99536.78
2023-03-06T10:05:04.154Z,99531.56
2023-03-06T10:09:14.829Z,99523.75
2023-03-06T10:13:25.188Z,99522.47
2023-03-06T10:17:35.095Z,99521.44
2023-03-06T10:22:00.204Z,99516.81
2023-03-06T10:26:08.060Z,99515.25
2023-03-06T10:30:26.601Z,99519.25
2023-03-06T10:34:33.238Z,99510.19
2023-03-06T10:38:37.711Z,99510.81
2023-03-06T10:42:39.676Z,99513.19
2023-03-06T10:46:46.804Z,99513.44
2023-03-06T10:50:49.371Z,99503.94
2023-03-06T10:54:51.424Z,99500.63
2023-03-06T10:59:06.868Z,99500.84
2023-03-06T11:03:20.029Z,99489.69
2023-03-06T11:07:29.143Z,99474.81
2023-03-06T11:11:37.515Z,99458.94
2023-03-06T11:15:40.860Z,99440.25
2023-03-06T11:19:43.048Z,99429.88
2023-03-06T11:23:47.413Z,99424.09
2023-03-06T11:28:00.384Z,99436.50
2023-03-06T11:32:09.315Z,99422.63
2023-03-06T11:36:34.010Z,99417.59
2023-03-06T11:40:53.132Z,99420.06
2023-03-06T11:45:34.652Z,99398.78
2023-03-06T11:49:51.254Z,99399.13
2023-03-06T11:53:54.977Z,99390.13
2023-03-06T11:58:35.195Z,99376.41
2023-03-06T12:02:45.837Z,99363.00
2023-03-06T12:07:09.522Z,99367.81
2023-03-06T12:11:24.265Z,99359.34
2023-03-06T12:15:55.946Z,99357.31
2023-03-06T12:20:36.289Z,99348.41
2023-03-06T12:24:55.431Z,99335.38
2023-03-06T12:29:07.065Z,99330.16
2023-03-06T12:33:19.941Z,99352.19
2023-03-06T12:37:35.913Z,99341.53
2023-03-06T12:42:22.676Z,99333.25
2023-03-06T12:46:27.987Z,99325.03
2023-03-06T12:50:31.222Z,99310.78
2023-03-06T12:54:40.387Z,99301.03
2023-03-06T12:58:53.551Z,99299.44
2023-03-06T13:03:12.749Z,99293.81
2023-03-06T13:07:57.061Z,99284.25
2023-03-06T13:12:19.362Z,99285.34
2023-03-06T13:16:32.638Z,99261.72
2023-03-06T13:20:43.859Z,99267.78
2023-03-06T13:24:45.862Z,99247.88
2023-03-06T13:28:50.363Z,99242.44
2023-03-06T13:32:53.190Z,99247.59
2023-03-06T13:37:24.883Z,99231.81
2023-03-06T13:41:54.067Z,99234.06
2023-03-06T13:45:56.143Z,99224.31
2023-03-06T13:49:59.118Z,99225.38
2023-03-06T13:54:19.210Z,99218.97
2023-03-06T13:58:52.950Z,99217.13
2023-03-06T14:03:10.424Z,99213.31
2023-03-06T14:07:18.247Z,99198.75
2023-03-06T14:11:21.509Z,99191.34
2023-03-06T14:15:36.423Z,99194.03
2023-03-06T14:19:38.877Z,99192.84
2023-03-06T14:23:43.428Z,99190.28
2023-03-06T14:27:51.631Z,99191.28
2023-03-06T14:31:55.201Z,99179.75
2023-03-06T14:36:01.755Z,99176.13
2023-03-06T14:40:10.876Z,99167.50
2023-03-06T14:44:20.506Z,99173.94
2023-03-06T14:48:24.581Z,99167.03
2023-03-06T14:52:26.574Z,99167.38
2023-03-06T14:56:30.313Z,99160.97
2023-03-06T15:00:41.557Z,99159.28
2023-03-06T15:04:58.294Z,99161.13
2023-03-06T15:09:13.754Z,99167.19
2023-03-06T15:13:26.020Z,99160.88
2023-03-06T15:17:29.412Z,99162.44
2023-03-06T15:21:36.542Z,99172.72
2023-03-06T15:25:38.744Z,99178.00
2023-03-06T15:29:40.747Z,99178.88
2023-03-06T15:33:42.813Z,99184.31
2023-03-06T15:37:44.955Z,99183.47
2023-03-06T15:41:47.581Z,99184.97
2023-03-06T15:45:49.682Z,99184.28
2023-03-06T15:49:53.185Z,99189.97
2023-03-06T15:54:09.683Z,99186.69
2023-03-06T15:58:17.194Z,99183.41
2023-03-06T16:02:24.322Z,99189.22
2023-03-06T16:06:26.350Z,99192.84
2023-03-06T16:10:30.401Z,99197.25
2023-03-06T16:14:32.503Z,99197.19
2023-03-06T16:18:34.480Z,99199.72
2023-03-06T16:22:36.424Z,99201.38
2023-03-06T16:26:38.520Z,99203.91
2023-03-06T16:30:41.426Z,99195.88
2023-03-06T16:34:43.409Z,99198.72
2023-03-06T16:38:45.420Z,99195.56
2023-03-06T16:42:48.591Z,99206.44
2023-03-06T16:46:50.819Z,99195.22
2023-03-06T16:50:52.790Z,99197.47
2023-03-06T16:54:54.758Z,99188.97
2023-03-06T16:58:56.693Z,99201.44
2023-03-06T17:02:59.585Z,99199.41
2023-03-06T17:07:01.573Z,99193.22
2023-03-06T17:11:05.901Z,99196.78
2023-03-06T17:15:08.915Z,99190.88
2023-03-06T17:19:15.168Z,99195.22
2023-03-06T17:23:18.772Z,99190.75
2023-03-06T17:27:22.452Z,99201.50
2023-03-06T17:31:26.805Z,99197.84
2023-03-06T17:35:29.078Z,99197.78
2023-03-06T17:39:38.840Z,99194.31
2023-03-06T17:43:41.412Z,99196.78
2023-03-06T17:47:43.454Z,99184.81
2023-03-06T17:51:45.581Z,99179.88
2023-03-06T17:55:47.747Z,99191.09
2023-03-06T17:59:49.897Z,99192.97
2023-03-06T18:03:52.245Z,99193.81
2023-03-06T18:07:54.775Z,99192.97
2023-03-06T18:11:56.958Z,99187.09
2023-03-06T18:16:00.199Z,99169.72
2023-03-06T18:20:02.513Z,99184.13
2023-03-06T18:24:04.793Z,99184.34
2023-03-06T18:28:07.280Z,99182.44
2023-03-06T18:32:10.796Z,99186.03
2023-03-06T18:36:12.588Z,99191.13
2023-03-06T18:40:15.945Z,99184.41
2023-03-06T18:44:18.966Z,99189.53
2023-03-06T18:48:21.626Z,99190.84
2023-03-06T18:52:23.950Z,99182.38
2023-03-06T18:56:26.463Z,99186.56
2023-03-06T19:00:28.413Z,99182.25
2023-03-06T19:04:30.684Z,99177.22
2023-03-06T19:08:33.303Z,99172.53
2023-03-06T19:12:35.624Z,99167.25
2023-03-06T19:16:37.859Z,99170.34
2023-03-06T19:20:40.270Z,99160.94
2023-03-06T19:24:41.965Z,99162.78
2023-03-06T19:28:45.223Z,99170.34
2023-03-06T19:32:47.355Z,99168.97
2023-03-06T19:36:50.271Z,99176.88
2023-03-06T19:40:52.243Z,99180.31
2023-03-06T19:44:54.388Z,99178.38
2023-03-06T19:49:01.303Z,99165.41
2023-03-06T19:53:04.551Z,99172.50
2023-03-06T19:57:07.029Z,99170.53
2023-03-06T20:01:12.538Z,99165.53
2023-03-06T20:05:14.660Z,99164.88
2023-03-06T20:09:16.843Z,99165.66
2023-03-06T20:13:18.846Z,99173.22
2023-03-06T20:17:21.084Z,99168.16
2023-03-06T20:21:23.968Z,99163.81
2023-03-06T20:25:26.501Z,99163.97
2023-03-06T20:29:28.625Z,99158.81
2023-03-06T20:33:30.603Z,99154.47
2023-03-06T20:37:32.678Z,99156.41
2023-03-06T20:41:35.199Z,99160.19
2023-03-06T20:45:37.240Z,99152.84
2023-03-06T20:49:39.209Z,99159.09
2023-03-06T20:53:41.190Z,99162.19
2023-03-06T20:57:43.170Z,99158.13
2023-03-06T21:01:45.984Z,99160.09
2023-03-06T21:05:48.616Z,99158.19
2023-03-06T21:09:52.164Z,99151.59
2023-03-06T21:13:54.680Z,99164.53
2023-03-06T21:17:57.206Z,99158.25
2023-03-06T21:21:59.398Z,99145.78
2023-03-06T21:26:01.563Z,99148.94
2023-03-06T21:30:04.183Z,99156.41
2023-03-06T21:34:06.437Z,99154.81
2023-03-06T21:38:08.890Z,99153.53
2023-03-06T21:42:11.090Z,99156.25
2023-03-06T21:46:13.697Z,99151.97
2023-03-06T21:50:15.834Z,99167.41
2023-03-06T21:54:17.784Z,99157.34
2023-03-06T21:58:19.738Z,99153.53
2023-03-06T22:02:22.053Z,99165.53
2023-03-06T22:06:26.615Z,99162.91
2023-03-06T22:10:28.609Z,99156.69
2023-03-06T22:14:30.552Z,99152.56
2023-03-06T22:18:33.417Z,99164.72
2023-03-06T22:22:35.450Z,99157.63
2023-03-06T22:26:37.393Z,99161.16
2023-03-06T22:30:39.311Z,99159.09
2023-03-06T22:34:41.463Z,99153.41
2023-03-06T22:38:45.210Z,99167.06
2023-03-06T22:42:47.240Z,99164.53
2023-03-06T22:46:50.150Z,99164.53
2023-03-06T22:50:52.102Z,99163.41
2023-03-06T22:54:54.059Z,99159.88
2023-03-06T22:58:57.649Z,99165.81
2023-03-06T23:02:59.718Z,99164.38
2023-03-06T23:07:01.985Z,99164.75
2023-03-06T23:11:09.958Z,99172.63
2023-03-06T23:15:31.276Z,99170.09
2023-03-06T23:19:52.067Z,99165.25
2023-03-06T23:24:12.310Z,99171.09
2023-03-06T23:28:15.008Z,99168.72
2023-03-06T23:32:17.001Z,99166.47
2023-03-06T23:36:19.356Z,99176.69
2023-03-06T23:40:21.312Z,99199.78
2023-03-06T23:44:23.619Z,99221.63
2023-03-06T23:48:26.693Z,99224.47
2023-03-06T23:52:28.654Z,99227.88
2023-03-06T23:56:30.642Z,99237.66
